CheckWX is a tool to help pilots better visualize weather data.  It is not intended as a substitute for an official pre-flight weather briefing.

06:43:05 UTC

EGPE METAR
Inverness Airport
Inverness, United Kingdom
Current

23 mins ago

EGPE 120620Z 22010KT 9999 FEW020 SCT036 13/09 Q1024
Observed
Jul-12 @ 06:20 UTC
Wind
  • 220° at 10 KTS
Visibility
10,000+ meters
Flight Rules
VFR
Cloud Levels
  • Few at 2,000' AGL
  • Scattered at 3,600' AGL
Temperature
13°C / 55°F
Dewpoint
C / 48°F
Humidity
77%
Altimeter
30.24" Hg
Pressure
1023.92 hPa
Previous

53 mins ago

EGPE 120550Z 22010KT 9999 FEW015 SCT035 11/08 Q1024
Observed
Jul-12 @ 05:50 UTC
Wind
  • 220° at 10 KTS
Visibility
10,000+ meters
Flight Rules
VFR
Cloud Levels
  • Few at 1,500' AGL
  • Scattered at 3,500' AGL
Temperature
11°C / 52°F
Dewpoint
C / 46°F
Humidity
82%
Altimeter
30.24" Hg
Pressure
1023.92 hPa
Previous

1 hour ago

EGPE 120520Z 23009KT 9999 FEW015 SCT035 12/08 Q1024
Observed
Jul-12 @ 05:20 UTC
Wind
  • 230° at 9 KTS
Visibility
10,000+ meters
Flight Rules
VFR
Cloud Levels
  • Few at 1,500' AGL
  • Scattered at 3,500' AGL
Temperature
12°C / 54°F
Dewpoint
C / 46°F
Humidity
77%
Altimeter
30.24" Hg
Pressure
1023.92 hPa